Latest Coastal Weather Observations for Sydney Harbour

IDN60701

Issued at 1:12 am EDT Tuesday 23 December 2014 (issued every 10 minutes, with the page automatically refreshed every 10 minutes)

About coastal observations | Map of coastal stations | Coastal observations for NSW | Marine services | Other Formats
Station Details ID: 066196 Name: WEDDING CAKE WEST Lat: -33.84 Lon: 151.26 Height: 6.0 m
Data from the previous 72 hours. | See also: Recent months for locations in New South Wales
Date/Time
EDT
Temp

°C
Wind Pressure Rain
since 9am
mm
Weather Cloud Vis
km
Sea
Height
m
Swell
Dir
 
Speed
knots
Gust
knots
hPa Trend Height
m
Period
s
Dir
23/01:00am 21.7 NNE 20 25 - - - - - - - - - -
23/12:30am 21.7 NE 19 24 - - - - - - - - - -
23/12:00am 21.8 NNE 21 25 - - - - - - - - - -
 
Date/Time
EDT
Temp

°C
Wind Pressure Rain
since 9am
mm
Weather Cloud Vis
km
Sea
Height
m
Swell
Dir
 
Speed
knots
Gust
knots
hPa Trend Height
m
Period
s
Dir
22/11:30pm 21.9 NNE 22 30 - - - - - - - - - -
22/11:00pm 21.8 NNE 21 25 - - - - - - - - - -
22/10:30pm 21.8 NNE 20 24 - - - - - - - - - -
22/10:00pm 21.9 NNE 22 27 - - - - - - - - - -
22/09:30pm 21.9 NNE 22 26 - - - - - - - - - -
22/09:00pm 21.9 NNE 23 27 - - - - - - - - - -
22/08:30pm 22.0 NNE 22 27 - - - - - - - - - -
22/08:00pm 22.2 NNE 19 23 - - - - - - - - - -
22/07:30pm 22.3 NNE 21 27 - - - - - - - - - -
22/07:00pm 22.2 NNE 20 24 - - - - - - - - - -
22/06:30pm 22.3 NNE 19 23 - - - - - - - - - -
22/06:00pm 22.5 NNE 19 22 - - - - - - - - - -
22/05:30pm 22.7 NNE 22 28 - - - - - - - - - -
22/05:00pm 22.5 NNE 18 23 - - - - - - - - - -
22/04:30pm 22.5 NNE 22 28 - - - - - - - - - -
22/04:00pm 22.6 NNE 23 28 - - - - - - - - - -
22/03:30pm 22.7 NNE 19 26 - - - - - - - - - -
22/03:00pm 23.0 NE 19 23 - - - - - - - - - -
22/02:30pm 22.8 NE 20 26 - - - - - - - - - -
22/02:00pm 22.9 NE 21 27 - - - - - - - - - -
22/01:30pm 22.9 NE 20 25 - - - - - - - - - -
22/01:00pm 22.6 NE 17 20 - - - - - - - - - -
22/12:30pm 22.3 NE 15 19 - - - - - - - - - -
22/12:00pm 22.4 NE 14 17 - - - - - - - - - -
22/11:30am 22.1 NE 13 15 - - - - - - - - - -
22/11:00am 21.8 NE 10 13 - - - - - - - - - -
22/10:30am 21.7 NNE 12 13 - - - - - - - - - -
22/10:00am 21.6 NNE 13 14 - - - - - - - - - -
22/09:30am 21.6 NNE 13 15 - - - - - - - - - -
22/09:00am 21.2 NNE 13 15 - - - - - - - - - -
22/08:30am 21.3 NNE 14 16 - - - - - - - - - -
22/08:00am 21.4 NNE 13 16 - - - - - - - - - -
22/07:30am 21.1 NNE 11 13 - - - - - - - - - -
22/07:00am 21.0 N 9 11 - - - - - - - - - -
22/06:30am 20.9 N 9 10 - - - - - - - - - -
22/06:00am 21.0 NNE 11 13 - - - - - - - - - -
22/05:30am 20.8 NE 11 12 - - - - - - - - - -
22/05:00am 20.9 NNE 10 12 - - - - - - - - - -
22/04:30am 21.0 NE 10 12 - - - - - - - - - -
22/04:00am 21.0 NE 11 13 - - - - - - - - - -
22/03:30am 21.0 NE 10 12 - - - - - - - - - -
22/03:00am 21.0 NNE 8 9 - - - - - - - - - -
22/02:30am 21.2 N 9 11 - - - - - - - - - -
22/02:00am 21.2 NNE 12 15 - - - - - - - - - -
22/01:30am 21.3 NNE 11 12 - - - - - - - - - -
22/01:00am 21.5 NNE 12 15 - - - - - - - - - -
22/12:30am 21.6 NNE 14 18 - - - - - - - - - -
22/12:00am 21.6 NNE 18 23 - - - - - - - - - -
 
Date/Time
EDT
Temp

°C
Wind Pressure Rain
since 9am
mm
Weather Cloud Vis
km
Sea
Height
m
Swell
Dir
 
Speed
knots
Gust
knots
hPa Trend Height
m
Period
s
Dir
21/11:30pm 21.7 NNE 19 24 - - - - - - - - - -
21/11:00pm 21.7 NNE 17 23 - - - - - - - - - -
21/10:30pm 21.8 NNE 17 21 - - - - - - - - - -
21/10:00pm 21.9 NNE 17 21 - - - - - - - - - -
21/09:30pm 21.9 NNE 16 20 - - - - - - - - - -
21/09:00pm 21.9 NNE 17 22 - - - - - - - - - -
21/08:30pm 21.9 NE 16 21 - - - - - - - - - -
21/08:00pm 22.0 NE 17 21 - - - - - - - - - -
21/07:30pm 22.1 NNE 18 24 - - - - - - - - - -
21/07:00pm 22.2 NNE 21 24 - - - - - - - - - -
21/06:30pm 22.3 NNE 21 26 - - - - - - - - - -
21/06:00pm 22.5 NNE 20 24 - - - - - - - - - -
21/05:30pm 22.4 NNE 17 22 - - - - - - - - - -
21/05:00pm 22.6 NE 16 20 - - - - - - - - - -
21/04:30pm 22.6 NE 18 23 - - - - - - - - - -
21/04:00pm 22.6 NE 17 21 - - - - - - - - - -
21/03:30pm 22.3 NE 17 21 - - - - - - - - - -
21/03:00pm 22.3 NE 15 18 - - - - - - - - - -
21/02:30pm 22.1 ENE 15 17 - - - - - - - - - -
21/02:00pm 22.0 ENE 15 18 - - - - - - - - - -
21/01:30pm 22.1 ENE 12 15 - - - - - - - - - -
21/01:00pm 22.2 ENE 13 15 - - - - - - - - - -
21/12:30pm 22.0 ENE 11 14 - - - - - - - - - -
21/12:00pm 21.8 ENE 11 15 - - - - - - - - - -
21/11:30am 21.7 ENE 11 14 - - - - - - - - - -
21/11:00am 21.7 ENE 10 12 - - - - - - - - - -
21/10:30am 21.6 NE 9 11 - - - - - - - - - -
21/10:00am 21.6 NE 9 12 - - - - - - - - - -
21/09:30am 21.4 NE 8 10 - - - - - - - - - -
21/09:00am 20.4 WSW 4 5 - - - - - - - - - -
21/08:30am 20.0 WSW 5 6 - - - - - - - - - -
21/08:00am 19.7 WSW 4 5 - - - - - - - - - -
21/07:30am 19.5 WSW 4 6 - - - - - - - - - -
21/07:00am 18.7 W 5 6 - - - - - - - - - -
21/06:30am 18.5 W 4 5 - - - - - - - - - -
21/06:00am 18.4 W 4 5 - - - - - - - - - -
21/05:30am 18.4 CALM 0 0 - - - - - - - - - -
21/05:00am 18.6 CALM 0 0 - - - - - - - - - -
21/04:30am 18.4 CALM 0 0 - - - - - - - - - -
21/04:00am 18.8 CALM 0 0 - - - - - - - - - -
21/03:30am 18.8 CALM 0 0 - - - - - - - - - -
21/03:00am 18.7 CALM 0 0 - - - - - - - - - -
21/02:30am 18.9 CALM 0 0 - - - - - - - - - -
21/02:00am 19.4 CALM 0 0 - - - - - - - - - -
21/01:30am 19.5 NNE 2 3 - - - - - - - - - -
21/01:00am 19.7 NNE 4 5 - - - - - - - - - -
21/12:30am 20.3 NNE 6 8 - - - - - - - - - -
21/12:00am 20.6 NNE 7 8 - - - - - - - - - -
 
Date/Time
EDT
Temp

°C
Wind Pressure Rain
since 9am
mm
Weather Cloud Vis
km
Sea
Height
m
Swell
Dir
 
Speed
knots
Gust
knots
hPa Trend Height
m
Period
s
Dir
20/11:30pm 20.7 NE 9 11 - - - - - - - - - -
20/11:00pm 20.7 NE 11 13 - - - - - - - - - -
20/10:30pm 20.7 NE 12 14 - - - - - - - - - -
20/10:00pm 20.7 NE 12 15 - - - - - - - - - -
20/09:30pm 20.7 NE 13 15 - - - - - - - - - -
20/09:00pm 20.7 NE 12 14 - - - - - - - - - -
20/08:30pm 20.6 NE 11 14 - - - - - - - - - -
20/08:00pm 20.5 NE 12 14 - - - - - - - - - -
20/07:30pm 20.6 NE 12 14 - - - - - - - - - -
20/07:00pm 20.5 NE 13 15 - - - - - - - - - -
20/06:30pm 20.4 NE 13 15 - - - - - - - - - -
20/06:00pm 20.4 ENE 12 14 - - - - - - - - - -
20/05:30pm 20.3 ENE 12 14 - - - - - - - - - -
20/05:00pm 20.4 ENE 11 15 - - - - - - - - - -
20/04:30pm 20.3 ENE 11 14 - - - - - - - - - -
20/04:00pm 20.2 ENE 11 14 - - - - - - - - - -
20/03:30pm 19.9 ENE 13 14 - - - - - - - - - -
20/03:00pm 20.0 ENE 11 14 - - - - - - - - - -
20/02:30pm 19.8 ENE 11 13 - - - - - - - - - -
20/02:00pm 20.1 ENE 10 13 - - - - - - - - - -
20/01:30pm 19.7 ENE 10 13 - - - - - - - - - -
20/01:00pm 19.8 ENE 10 13 - - - - - - - - - -
20/12:30pm 19.9 E 9 12 - - - - - - - - - -
20/12:00pm 20.1 E 8 10 - - - - - - - - - -
20/11:30am 20.2 E 8 10 - - - - - - - - - -
20/11:00am 19.5 ENE 8 10 - - - - - - - - - -
20/10:30am 19.9 E 6 8 - - - - - - - - - -
20/10:00am 19.6 ESE 6 9 - - - - - - - - - -
20/09:30am 19.7 SE 7 9 - - - - - - - - - -
20/09:00am 19.6 E 6 7 - - - - - - - - - -
20/08:30am 19.3 SE 6 9 - - - - - - - - - -
20/08:00am 18.9 S 5 7 - - - - - - - - - -
20/07:30am 18.8 SSW 6 7 - - - - - - - - - -
20/07:00am 18.9 SSE 4 5 - - - - - - - - - -
20/06:30am 18.9 SSE 5 8 - - - - - - - - - -
20/06:00am 19.0 SE 6 8 - - - - - - - - - -
20/05:30am 19.0 SSE 6 8 - - - - - - - - - -
20/05:00am 19.0 SE 5 7 - - - - - - - - - -
20/04:30am 18.9 SSE 7 9 - - - - - - - - - -
20/04:00am 18.8 SSE 6 8 - - - - - - - - - -
20/03:30am 18.9 SSE 7 9 - - - - - - - - - -
20/03:00am 19.0 SE 8 9 - - - - - - - - - -
20/02:30am 19.0 SSE 7 9 - - - - - - - - - -
20/02:00am 19.0 SSE 9 10 - - - - - - - - - -
20/01:30am 19.1 SSE 8 11 - - - - - - - - - -

Other Formats:

Comma delimited format used in spreadsheet applications
http://www.bom.gov.au/fwo/IDN60701/IDN60701.95766.axf

JavaScript Object Notation format (JSON) in row-major order
http://www.bom.gov.au/fwo/IDN60701/IDN60701.95766.json